Time,TemperatureF,DewpointF,PressureIn,WindDirection,WindDirectionDegrees,WindSpeedMPH,WindSpeedGustMPH,Humidity,HourlyPrecipIn,Conditions,Clouds,dailyrainin,SoftwareType,DateUTC
2013-06-15 12:56:00,79.9,59.0,29.96,SSW,203,4.0,4.0,49,0.01,,,0.00,WUHU216HW,2013-06-15 10:56:00,
2013-06-15 13:01:00,78.8,58.7,29.96,WSW,248,0.4,4.5,50,0.01,,,0.01,WUHU216HW,2013-06-15 11:01:00,
2013-06-15 13:06:00,78.3,57.6,29.96,SE,135,0.7,4.5,49,0.01,,,0.01,WUHU216HW,2013-06-15 11:06:00,
2013-06-15 13:11:00,77.8,57.7,29.96,North,0,0.0,4.3,50,0.01,,,0.01,WUHU216HW,2013-06-15 11:11:00,
2013-06-15 13:16:00,77.0,57.1,29.96,North,0,0.4,3.4,50,0.01,,,0.01,WUHU216HW,2013-06-15 11:16:00,
2013-06-15 13:21:00,76.7,57.8,29.96,WSW,248,1.8,3.4,52,0.00,,,0.01,WUHU216HW,2013-06-15 11:21:00,
2013-06-15 13:26:00,76.3,58.0,29.96,WNW,293,2.5,2.5,53,0.00,,,0.01,WUHU216HW,2013-06-15 11:26:00,
2013-06-15 13:31:00,76.1,57.2,29.96,NNE,23,1.1,2.5,52,0.00,,,0.01,WUHU216HW,2013-06-15 11:31:00,
2013-06-15 13:36:00,76.1,57.8,29.96,NNW,338,1.1,3.6,53,0.00,,,0.01,WUHU216HW,2013-06-15 11:36:00,
2013-06-15 13:41:00,76.0,58.2,29.96,WNW,293,2.5,3.6,54,0.00,,,0.01,WUHU216HW,2013-06-15 11:41:00,
2013-06-15 13:42:00,76.0,58.2,29.96,WNW,293,2.5,3.6,54,0.00,,,0.01,WUHU216HW,2013-06-15 11:42:00,
2013-06-15 14:08:00,76.7,59.2,29.96,NW,315,1.8,1.8,55,0.00,,,0.01,WUHU216HW,2013-06-15 12:08:00,
2013-06-15 14:13:00,76.7,58.8,29.96,WSW,248,0.7,2.2,54,0.00,,,0.02,WUHU216HW,2013-06-15 12:13:00,
2013-06-15 14:18:00,76.7,58.8,29.94,NW,315,0.7,4.3,54,2.59,,,0.02,WUHU216HW,2013-06-15 12:18:00,
2013-06-15 14:23:00,76.7,59.2,29.95,NNW,338,3.1,4.3,55,2.59,,,0.02,WUHU216HW,2013-06-15 12:23:00,
2013-06-15 14:28:00,76.7,58.8,29.94,West,270,1.1,3.1,54,2.59,,,0.02,WUHU216HW,2013-06-15 12:28:00,
2013-06-15 14:33:00,76.9,58.4,29.94,NW,315,2.7,3.1,53,2.59,,,0.02,WUHU216HW,2013-06-15 12:33:00,
2013-06-15 14:38:00,76.9,57.9,29.94,North,0,0.4,2.7,52,2.59,,,0.02,WUHU216HW,2013-06-15 12:38:00,
2013-06-15 14:43:00,76.9,57.9,29.94,North,0,0.4,2.7,52,2.59,,,0.02,WUHU216HW,2013-06-15 12:43:00,
2013-06-15 16:06:00,81.5,58.1,29.91,WSW,248,1.3,1.3,45,0.00,,,0.00,WUHU216HW,2013-06-15 14:06:00,
2013-06-15 16:11:00,81.5,58.1,29.91,WSW,248,1.3,1.3,45,0.00,,,0.00,WUHU216HW,2013-06-15 14:11:00,
2013-06-15 16:16:00,81.9,59.6,29.91,West,270,2.2,2.2,47,0.00,,,0.00,WUHU216HW,2013-06-15 14:16:00,
2013-06-15 16:21:00,80.6,59.0,29.91,WSW,248,1.6,2.2,48,0.00,,,0.00,WUHU216HW,2013-06-15 14:21:00,
2013-06-15 16:26:00,79.4,57.3,29.91,West,270,2.5,7.6,47,0.00,,,0.00,WUHU216HW,2013-06-15 14:26:00,
2013-06-15 16:31:00,78.5,58.3,29.91,NW,315,2.2,7.6,50,0.00,,,0.00,WUHU216HW,2013-06-15 14:31:00,
2013-06-15 16:36:00,77.6,57.0,29.91,WNW,293,3.4,4.7,49,0.00,,,0.00,WUHU216HW,2013-06-15 14:36:00,
2013-06-15 16:41:00,76.9,56.9,29.91,WNW,293,4.0,5.1,50,0.00,,,0.00,WUHU216HW,2013-06-15 14:41:00,
2013-06-15 16:46:00,76.5,57.6,29.91,West,270,0.9,5.1,52,0.00,,,0.00,WUHU216HW,2013-06-15 14:46:00,
2013-06-15 16:51:00,76.3,56.9,29.91,WNW,293,3.1,3.1,51,0.00,,,0.00,WUHU216HW,2013-06-15 14:51:00,
2013-06-15 16:56:00,76.0,57.1,29.91,SW,225,1.6,4.9,52,0.00,,,0.00,WUHU216HW,2013-06-15 14:56:00,
2013-06-15 17:01:00,76.0,57.6,29.91,NNW,338,2.0,4.9,53,0.00,,,0.00,WUHU216HW,2013-06-15 15:01:00,
2013-06-15 17:06:00,75.8,57.4,29.91,WNW,293,2.2,5.8,53,0.00,,,0.00,WUHU216HW,2013-06-15 15:06:00,
2013-06-15 17:11:00,76.0,58.2,29.91,West,270,1.3,5.8,54,0.00,,,0.00,WUHU216HW,2013-06-15 15:11:00,
2013-06-15 17:16:00,76.0,58.6,29.90,North,0,2.0,4.7,55,0.00,,,0.00,WUHU216HW,2013-06-15 15:16:00,
2013-06-15 17:21:00,76.5,58.6,29.90,WNW,293,1.1,3.6,54,0.00,,,0.00,WUHU216HW,2013-06-15 15:21:00,
2013-06-15 17:26:00,76.7,59.2,29.90,West,270,1.8,3.6,55,0.00,,,0.00,WUHU216HW,2013-06-15 15:26:00,
2013-06-15 17:31:00,76.7,59.2,29.90,West,270,1.1,2.5,55,0.00,,,0.00,WUHU216HW,2013-06-15 15:31:00,
2013-06-15 17:36:00,76.3,58.4,29.91,WSW,248,1.1,2.9,54,0.00,,,0.00,WUHU216HW,2013-06-15 15:36:00,
2013-06-15 17:41:00,76.1,58.8,29.91,West,270,1.1,2.9,55,0.00,,,0.00,WUHU216HW,2013-06-15 15:41:00,
2013-06-15 17:46:00,76.0,58.6,29.90,WNW,293,0.9,2.5,55,0.00,,,0.00,WUHU216HW,2013-06-15 15:46:00,
2013-06-15 17:51:00,75.8,58.4,29.90,WNW,293,1.6,3.1,55,0.00,,,0.00,WUHU216HW,2013-06-15 15:51:00,
2013-06-15 17:56:00,75.6,58.3,29.90,WNW,293,0.4,3.1,55,0.00,,,0.00,WUHU216HW,2013-06-15 15:56:00,
2013-06-15 18:01:00,75.6,58.8,29.90,WSW,248,1.1,3.1,56,0.00,,,0.00,WUHU216HW,2013-06-15 16:01:00,
2013-06-15 18:06:00,75.8,58.4,29.90,SW,225,1.1,3.1,55,0.00,,,0.00,WUHU216HW,2013-06-15 16:06:00,
2013-06-15 18:11:00,75.8,59.0,29.90,West,270,0.7,3.1,56,0.00,,,0.00,WUHU216HW,2013-06-15 16:11:00,
2013-06-15 18:16:00,76.0,59.1,29.91,WNW,293,1.1,1.8,56,0.00,,,0.00,WUHU216HW,2013-06-15 16:16:00,
2013-06-15 18:21:00,75.8,59.5,29.91,West,270,0.7,2.2,57,0.00,,,0.00,WUHU216HW,2013-06-15 16:21:00,
2013-06-15 18:26:00,75.8,58.4,29.91,NW,315,1.1,3.4,55,0.00,,,0.00,WUHU216HW,2013-06-15 16:26:00,
2013-06-15 18:31:00,75.6,58.3,29.91,WSW,248,0.7,3.6,55,0.00,,,0.00,WUHU216HW,2013-06-15 16:31:00,
2013-06-15 18:36:00,75.6,58.8,29.91,WSW,248,1.6,3.6,56,0.00,,,0.00,WUHU216HW,2013-06-15 16:36:00,
2013-06-15 18:41:00,76.0,59.1,29.91,NW,315,0.9,2.9,56,0.00,,,0.00,WUHU216HW,2013-06-15 16:41:00,
2013-06-15 18:46:00,76.0,59.1,29.91,WSW,248,1.1,2.5,56,0.00,,,0.00,WUHU216HW,2013-06-15 16:46:00,
2013-06-15 18:51:00,76.0,59.1,29.91,West,270,0.4,2.5,56,0.00,,,0.00,WUHU216HW,2013-06-15 16:51:00,
2013-06-15 18:56:00,76.1,59.8,29.91,West,270,0.9,2.9,57,0.00,,,0.00,WUHU216HW,2013-06-15 16:56:00,
2013-06-15 19:01:00,76.1,59.8,29.91,West,270,0.9,2.9,57,0.00,,,0.00,WUHU216HW,2013-06-15 17:01:00,
2013-06-15 19:06:00,76.0,59.6,29.91,WSW,248,0.4,2.5,57,0.00,,,0.00,WUHU216HW,2013-06-15 17:06:00,
2013-06-15 19:11:00,75.6,59.8,29.91,SW,225,1.1,1.1,58,0.00,,,0.00,WUHU216HW,2013-06-15 17:11:00,
2013-06-15 19:15:00,75.2,59.5,29.91,SW,225,1.6,1.6,58,0.00,,,0.00,WUHU216HW,2013-06-15 17:15:00,
2013-06-15 19:21:00,74.7,59.0,29.91,SW,225,1.6,2.2,58,0.00,,,0.00,WUHU216HW,2013-06-15 17:21:00,
2013-06-15 19:25:00,74.3,59.0,29.91,SW,225,1.1,2.2,59,0.00,,,0.00,WUHU216HW,2013-06-15 17:25:00,
2013-06-15 19:31:00,74.0,58.7,29.91,SW,225,1.8,2.2,59,0.00,,,0.00,WUHU216HW,2013-06-15 17:31:00,
2013-06-15 19:35:00,73.6,58.3,29.91,SW,225,2.0,2.5,59,0.00,,,0.00,WUHU216HW,2013-06-15 17:35:00,
2013-06-15 19:40:00,73.4,58.1,29.91,SSW,203,1.3,2.5,59,0.00,,,0.00,WUHU216HW,2013-06-15 17:40:00,
2013-06-15 19:45:00,73.1,58.3,29.91,SW,225,1.3,2.5,60,0.00,,,0.00,WUHU216HW,2013-06-15 17:45:00,
2013-06-15 19:50:00,72.7,58.1,29.91,SW,225,1.8,2.5,60,0.00,,,0.00,WUHU216HW,2013-06-15 17:50:00,
2013-06-15 19:55:00,72.5,57.3,29.91,SW,225,1.6,2.2,59,0.00,,,0.00,WUHU216HW,2013-06-15 17:55:00,
2013-06-15 20:00:00,72.5,57.9,29.91,SW,225,1.1,2.2,60,0.00,,,0.00,WUHU216HW,2013-06-15 18:00:00,
2013-06-15 20:05:00,72.4,57.7,29.91,SSW,203,1.1,1.8,60,0.00,,,0.00,WUHU216HW,2013-06-15 18:05:00,
2013-06-15 20:10:00,72.2,58.0,29.92,SW,225,0.9,1.8,61,0.00,,,0.00,WUHU216HW,2013-06-15 18:10:00,
2013-06-15 20:15:00,72.2,58.4,29.92,SW,225,0.7,1.8,62,0.00,,,0.00,WUHU216HW,2013-06-15 18:15:00,
2013-06-15 20:20:00,72.0,58.2,29.92,SW,225,0.4,1.6,62,0.00,,,0.00,WUHU216HW,2013-06-15 18:20:00,
2013-06-15 20:25:00,71.8,58.5,29.92,SW,225,0.0,1.3,63,0.00,,,0.00,WUHU216HW,2013-06-15 18:25:00,
2013-06-15 20:30:00,71.5,58.6,29.92,SW,225,0.4,0.7,64,0.00,,,0.00,WUHU216HW,2013-06-15 18:30:00,
2013-06-15 20:35:00,71.1,58.3,29.92,SE,135,0.2,0.7,64,0.00,,,0.00,WUHU216HW,2013-06-15 18:35:00,
2013-06-15 20:40:00,70.9,58.2,29.91,ESE,113,0.9,1.3,64,0.00,,,0.00,WUHU216HW,2013-06-15 18:40:00,
2013-06-15 20:45:00,70.6,58.2,29.92,SE,135,0.0,1.3,65,0.00,,,0.00,WUHU216HW,2013-06-15 18:45:00,
2013-06-15 20:50:00,70.4,58.1,29.92,SE,135,0.0,1.1,65,0.00,,,0.00,WUHU216HW,2013-06-15 18:50:00,
2013-06-15 20:55:00,70.0,57.7,29.92,SSE,158,0.7,0.7,65,0.00,,,0.00,WUHU216HW,2013-06-15 18:55:00,
2013-06-15 21:00:00,69.5,57.2,29.92,SSW,203,1.1,1.6,65,0.00,,,0.00,WUHU216HW,2013-06-15 19:00:00,
2013-06-15 21:05:00,69.3,57.4,29.92,South,180,1.6,1.6,66,0.00,,,0.00,WUHU216HW,2013-06-15 19:05:00,
2013-06-15 21:11:00,69.1,57.2,29.92,SSE,158,0.4,1.6,66,0.00,,,0.00,WUHU216HW,2013-06-15 19:11:00,
2013-06-15 21:16:00,68.8,56.9,29.93,SSE,158,1.1,1.6,66,0.00,,,0.00,WUHU216HW,2013-06-15 19:16:00,
2013-06-15 21:20:00,68.6,56.7,29.92,SE,135,0.9,1.1,66,0.00,,,0.00,WUHU216HW,2013-06-15 19:20:00,
2013-06-15 21:25:00,68.4,57.0,29.93,SE,135,0.9,1.8,67,0.00,,,0.00,WUHU216HW,2013-06-15 19:25:00,
2013-06-15 21:31:00,68.0,56.7,29.93,SE,135,1.1,1.8,67,0.00,,,0.00,WUHU216HW,2013-06-15 19:31:00,
2013-06-15 21:36:00,67.9,56.5,29.93,SE,135,0.4,1.3,67,0.00,,,0.00,WUHU216HW,2013-06-15 19:36:00,
2013-06-15 21:41:00,67.7,56.4,29.93,SE,135,0.9,1.3,67,0.00,,,0.00,WUHU216HW,2013-06-15 19:41:00,
2013-06-15 21:46:00,67.3,56.4,29.94,SE,135,0.7,1.1,68,0.00,,,0.00,WUHU216HW,2013-06-15 19:46:00,
2013-06-15 21:51:00,67.1,56.3,29.94,SE,135,0.7,1.6,68,0.00,,,0.00,WUHU216HW,2013-06-15 19:51:00,
2013-06-15 21:56:00,67.0,56.1,29.93,SE,135,1.1,1.8,68,0.00,,,0.00,WUHU216HW,2013-06-15 19:56:00,
2013-06-15 22:01:00,66.8,55.9,29.93,SE,135,1.1,1.8,68,0.00,,,0.00,WUHU216HW,2013-06-15 20:01:00,
2013-06-15 22:06:00,66.6,55.7,29.94,SE,135,1.1,1.8,68,0.00,,,0.00,WUHU216HW,2013-06-15 20:06:00,
2013-06-15 22:11:00,66.4,55.9,29.94,SSE,158,1.3,1.8,69,0.00,,,0.00,WUHU216HW,2013-06-15 20:11:00,
2013-06-15 22:16:00,66.2,55.7,29.94,SE,135,0.0,1.3,69,0.00,,,0.00,WUHU216HW,2013-06-15 20:16:00,
2013-06-15 22:20:00,66.1,55.6,29.94,SE,135,0.7,1.6,69,0.00,,,0.00,WUHU216HW,2013-06-15 20:20:00,
2013-06-15 22:25:00,65.9,55.5,29.94,SE,135,0.4,1.6,69,0.00,,,0.00,WUHU216HW,2013-06-15 20:25:00,
2013-06-15 22:30:00,65.7,55.7,29.94,SE,135,0.7,1.1,70,0.00,,,0.00,WUHU216HW,2013-06-15 20:30:00,
2013-06-15 22:35:00,65.5,55.5,29.94,SE,135,0.0,1.1,70,0.00,,,0.00,WUHU216HW,2013-06-15 20:35:00,
2013-06-15 22:40:00,65.2,55.2,29.94,SE,135,0.2,0.7,70,0.00,,,0.00,WUHU216HW,2013-06-15 20:40:00,
2013-06-15 22:45:00,65.0,55.0,29.94,SE,135,0.9,1.3,70,0.00,,,0.00,WUHU216HW,2013-06-15 20:45:00,
2013-06-15 22:50:00,65.0,55.0,29.94,SE,135,0.9,1.3,70,0.00,,,0.00,WUHU216HW,2013-06-15 20:50:00,
2013-06-15 22:56:00,64.8,54.9,29.95,SE,135,0.2,1.1,70,0.00,,,0.00,WUHU216HW,2013-06-15 20:56:00,
2013-06-15 23:01:00,64.6,54.7,29.94,SE,135,1.1,1.1,70,0.00,,,0.00,WUHU216HW,2013-06-15 21:01:00,
2013-06-15 23:06:00,64.6,55.1,29.95,SE,135,1.1,1.6,71,0.00,,,0.00,WUHU216HW,2013-06-15 21:06:00,
2013-06-15 23:11:00,64.4,54.9,29.95,SE,135,1.1,1.6,71,0.00,,,0.00,WUHU216HW,2013-06-15 21:11:00,
2013-06-15 23:16:00,64.4,54.9,29.95,SE,135,0.9,1.3,71,0.00,,,0.00,WUHU216HW,2013-06-15 21:16:00,
2013-06-15 23:21:00,64.4,54.9,29.95,SE,135,0.4,1.3,71,0.00,,,0.00,WUHU216HW,2013-06-15 21:21:00,
2013-06-15 23:26:00,64.4,54.9,29.95,SE,135,0.2,1.3,71,0.00,,,0.00,WUHU216HW,2013-06-15 21:26:00,
2013-06-15 23:31:00,64.4,55.3,29.95,SE,135,0.0,0.4,72,0.00,,,0.00,WUHU216HW,2013-06-15 21:31:00,
2013-06-15 23:36:00,64.3,55.1,29.95,SE,135,0.4,0.7,72,0.00,,,0.00,WUHU216HW,2013-06-15 21:36:00,
2013-06-15 23:41:00,64.3,55.1,29.94,SE,135,1.1,1.1,72,0.00,,,0.00,WUHU216HW,2013-06-15 21:41:00,
2013-06-15 23:46:00,64.3,55.1,29.95,SE,135,0.7,1.6,72,0.00,,,0.00,WUHU216HW,2013-06-15 21:46:00,
2013-06-15 23:51:00,64.1,54.9,29.95,NE,45,1.1,1.6,72,0.00,,,0.00,WUHU216HW,2013-06-15 21:51:00,
2013-06-15 23:56:00,63.9,54.7,29.95,NNW,338,0.0,1.3,72,0.00,,,0.00,WUHU216HW,2013-06-15 21:56:00,